createdAt,value
2019-06-10T00:01:21.558Z,3.52
2019-06-10T00:06:25.923Z,3.77
2019-06-10T00:11:31.511Z,3.98
2019-06-10T00:16:35.993Z,4.53
2019-06-10T00:21:41.370Z,4.17
2019-06-10T00:26:45.672Z,3.87
2019-06-10T00:31:50.830Z,4.53
2019-06-10T00:36:55.663Z,4.65
2019-06-10T00:42:02.503Z,4.30
2019-06-10T00:47:07.920Z,4.78
2019-06-10T00:52:14.016Z,5.08
2019-06-10T00:57:20.747Z,5.03
2019-06-10T01:02:24.404Z,5.00
2019-06-10T01:07:30.981Z,6.08
2019-06-10T01:12:34.930Z,5.10
2019-06-10T01:17:41.637Z,5.15
2019-06-10T01:22:45.596Z,5.77
2019-06-10T01:27:51.564Z,6.10
2019-06-10T01:32:56.105Z,5.78
2019-06-10T01:38:01.095Z,5.95
2019-06-10T01:43:06.305Z,5.90
2019-06-10T01:48:12.188Z,5.67
2019-06-10T01:53:17.603Z,5.87
2019-06-10T01:58:23.650Z,6.22
2019-06-10T02:03:31.185Z,5.87
2019-06-10T02:08:34.427Z,5.33
2019-06-10T02:13:40.819Z,5.67
2019-06-10T02:18:57.650Z,6.03
2019-06-10T02:23:52.043Z,6.03
2019-06-10T02:28:56.510Z,5.70
2019-06-10T02:34:02.599Z,5.12
2019-06-10T02:39:09.090Z,4.20
2019-06-10T02:44:17.213Z,4.75
2019-06-10T02:49:35.587Z,5.25
2019-06-10T02:54:31.286Z,4.92
2019-06-10T02:59:36.132Z,5.00
2019-06-10T03:04:38.003Z,4.70
2019-06-10T03:09:42.953Z,4.45
2019-06-10T03:14:47.422Z,4.75
2019-06-10T03:19:53.610Z,4.17
2019-06-10T03:24:57.950Z,4.45
2019-06-10T03:30:09.000Z,4.85
2019-06-10T03:35:09.123Z,4.53
2019-06-10T03:40:13.636Z,4.20
2019-06-10T03:45:19.141Z,3.85
2019-06-10T03:50:25.880Z,4.20
2019-06-10T03:55:29.975Z,4.20
2019-06-10T04:00:36.916Z,4.60
2019-06-10T04:05:42.368Z,4.37
2019-06-10T04:10:46.586Z,4.50
2019-06-10T04:15:53.318Z,4.50
2019-06-10T04:21:05.139Z,4.40
2019-06-10T04:26:09.454Z,4.42
2019-06-10T04:31:13.832Z,4.40
2019-06-10T04:36:18.394Z,4.95
2019-06-10T04:41:24.630Z,4.00
2019-06-10T04:46:34.605Z,4.83
2019-06-10T04:51:39.007Z,3.70
2019-06-10T04:56:43.403Z,4.62
2019-06-10T05:01:47.714Z,4.30
2019-06-10T05:06:52.716Z,4.17
2019-06-10T05:11:57.142Z,4.25
2019-06-10T05:41:21.801Z,3.47
2019-06-10T05:57:05.468Z,3.50
2019-06-10T08:17:54.460Z,4.28
2019-06-10T08:19:46.222Z,4.85
2019-06-10T08:46:27.792Z,4.72
2019-06-10T08:52:02.769Z,4.30
2019-06-10T08:56:50.330Z,4.55
2019-06-10T09:01:56.933Z,4.47
2019-06-10T09:07:04.225Z,4.85
2019-06-10T09:12:32.921Z,4.83
2019-06-10T09:23:18.372Z,5.28
2019-06-10T09:28:10.039Z,4.55
2019-06-10T09:33:23.245Z,5.40
2019-06-10T09:38:34.656Z,5.15
2019-06-10T09:43:59.950Z,5.42
2019-06-10T09:49:02.127Z,5.50
2019-06-10T09:54:12.742Z,4.78
2019-06-10T10:00:15.952Z,4.80
2019-06-10T10:04:49.452Z,5.28
2019-06-10T10:15:39.563Z,4.83
2019-06-10T10:42:23.622Z,6.35
2019-06-10T10:47:27.650Z,6.10
2019-06-10T10:52:33.187Z,6.00
2019-06-10T10:57:37.656Z,6.45
2019-06-10T11:02:43.132Z,7.87
2019-06-10T11:07:48.196Z,5.97
2019-06-10T11:12:54.148Z,5.20
2019-06-10T11:17:58.897Z,6.37
2019-06-10T11:23:03.285Z,6.00
2019-06-10T11:28:07.944Z,9.53
2019-06-10T11:33:12.347Z,8.55
2019-06-10T11:38:16.764Z,7.12
2019-06-10T11:43:22.630Z,7.08
2019-06-10T11:48:27.143Z,7.55
2019-06-10T11:53:34.394Z,14.78
2019-06-10T11:58:39.013Z,6.33
2019-06-10T12:03:43.475Z,9.93
2019-06-10T12:08:48.903Z,7.00
2019-06-10T12:13:59.931Z,9.25
2019-06-10T12:19:00.717Z,6.85
2019-06-10T12:24:05.691Z,5.70
2019-06-10T12:29:12.334Z,10.43
2019-06-10T12:34:19.477Z,12.80
2019-06-10T12:39:23.739Z,5.80
2019-06-10T12:44:28.134Z,5.05
2019-06-10T12:49:32.710Z,5.75
2019-06-10T12:54:37.265Z,7.67
2019-06-10T12:59:43.028Z,6.25
2019-06-10T13:04:48.916Z,6.03
2019-06-10T13:09:57.617Z,11.33
2019-06-10T13:15:05.434Z,12.13
2019-06-10T13:20:10.412Z,12.73
2019-06-10T13:25:15.499Z,4.87
2019-06-10T13:30:22.065Z,6.28
2019-06-10T13:40:31.990Z,6.45
2019-06-10T13:45:36.262Z,6.20
2019-06-10T13:50:42.328Z,7.40
2019-06-10T13:55:46.869Z,10.53
2019-06-10T14:00:53.597Z,6.33
2019-06-10T14:05:59.753Z,25.40
2019-06-10T14:11:07.298Z,23.30
2019-06-10T14:16:12.736Z,42.15
2019-06-10T14:21:18.346Z,8.85
2019-06-10T14:26:36.605Z,7.97
2019-06-10T14:31:42.856Z,7.15
2019-06-10T14:36:34.320Z,24.85
2019-06-10T14:41:38.649Z,8.90
2019-06-10T14:46:43.019Z,6.67
2019-06-10T14:51:47.634Z,5.30
2019-06-10T14:56:57.231Z,5.65
2019-06-10T15:02:02.622Z,6.20
2019-06-10T15:07:07.221Z,9.43
2019-06-10T15:12:15.580Z,9.15
2019-06-10T15:17:18.934Z,12.30
2019-06-10T15:22:24.244Z,12.55
2019-06-10T15:27:32.564Z,14.15
2019-06-10T15:32:35.105Z,16.07
2019-06-10T15:37:39.437Z,15.68
2019-06-10T15:42:43.836Z,20.88
2019-06-10T15:47:48.227Z,24.35
2019-06-10T15:52:54.187Z,23.25
2019-06-10T15:57:58.499Z,22.07
2019-06-10T16:03:02.810Z,24.20
2019-06-10T16:08:07.394Z,25.27
2019-06-10T16:13:12.509Z,21.80
2019-06-10T16:18:18.482Z,19.77
2019-06-10T16:23:26.705Z,20.00
2019-06-10T16:28:32.671Z,20.70
2019-06-10T16:33:36.602Z,20.53
2019-06-10T16:38:42.331Z,18.27
2019-06-10T16:43:46.984Z,16.62
2019-06-10T16:48:52.744Z,19.95
2019-06-10T16:53:57.272Z,23.07
2019-06-10T16:59:02.989Z,22.60
2019-06-10T17:04:07.543Z,23.87
2019-06-10T17:09:13.450Z,24.63
2019-06-10T17:14:18.074Z,23.40
2019-06-10T17:19:26.443Z,22.90
2019-06-10T17:24:29.517Z,22.20
2019-06-10T17:29:34.776Z,19.73
2019-06-10T17:34:39.096Z,20.30
2019-06-10T17:39:43.415Z,21.23
2019-06-10T17:44:47.740Z,23.22
2019-06-10T17:49:52.051Z,21.40
2019-06-10T17:55:23.327Z,22.50
2019-06-10T18:00:27.857Z,21.68
2019-06-10T18:05:33.563Z,22.77
2019-06-10T18:10:37.920Z,27.93
2019-06-10T18:15:42.430Z,31.33
2019-06-10T18:20:46.764Z,34.95
2019-06-10T18:25:52.704Z,35.52
2019-06-10T18:30:57.255Z,34.75
2019-06-10T18:36:01.622Z,28.90
2019-06-10T18:41:06.071Z,26.62
2019-06-10T18:46:12.774Z,14.03
2019-06-10T18:51:16.602Z,12.68
2019-06-10T18:56:23.070Z,13.83
2019-06-10T19:01:28.197Z,8.10
2019-06-10T19:06:33.845Z,8.90
2019-06-10T19:11:40.189Z,12.67
2019-06-10T19:16:44.564Z,16.05
2019-06-10T19:22:01.824Z,12.10
2019-06-10T19:26:58.269Z,28.10
2019-06-10T19:32:03.659Z,17.42
2019-06-10T19:37:07.267Z,20.05
2019-06-10T19:42:13.049Z,25.40
2019-06-10T19:47:17.405Z,24.77
2019-06-10T19:52:23.462Z,20.40
2019-06-10T19:57:27.889Z,28.30
2019-06-10T20:02:33.001Z,18.60
2019-06-10T20:07:42.030Z,32.80
2019-06-10T20:12:46.670Z,17.12
2019-06-10T20:17:52.563Z,40.67
2019-06-10T20:22:57.623Z,40.80
2019-06-10T20:28:02.842Z,45.05
2019-06-10T20:33:07.476Z,40.85
2019-06-10T20:38:13.085Z,49.60
2019-06-10T20:43:17.638Z,46.83
2019-06-10T20:48:24.510Z,38.23
2019-06-10T20:53:28.692Z,50.87
2019-06-10T20:58:33.293Z,47.23
2019-06-10T21:03:38.974Z,47.83
2019-06-10T21:08:47.697Z,47.08
2019-06-10T21:13:52.092Z,47.48
2019-06-10T21:18:56.254Z,39.70
2019-06-10T22:09:13.708Z,55.08
2019-06-10T22:12:44.156Z,45.83
2019-06-10T22:17:50.401Z,45.83
2019-06-10T22:22:56.393Z,44.25
2019-06-10T22:28:02.683Z,45.75
2019-06-10T22:33:06.919Z,40.00
2019-06-10T22:38:13.035Z,45.67
2019-06-10T22:43:17.436Z,46.08
2019-06-10T22:48:22.455Z,42.93
2019-06-10T22:53:27.051Z,48.30
2019-06-10T22:58:31.367Z,46.23
2019-06-10T23:03:35.679Z,46.23
2019-06-10T23:08:40.093Z,53.63
2019-06-10T23:13:44.425Z,55.17
2019-06-10T23:18:48.895Z,51.55
2019-06-10T23:23:55.410Z,51.63
2019-06-10T23:29:00.222Z,50.83
2019-06-10T23:34:04.826Z,64.10
2019-06-10T23:39:09.446Z,53.13
2019-06-10T23:44:13.830Z,58.73
2019-06-10T23:49:18.239Z,58.20
2019-06-10T23:54:22.953Z,53.68
2019-06-10T23:59:27.403Z,55.67
